createdAt,value
2023-01-19T00:01:28.131Z,6.73
2023-01-19T00:03:56.036Z,9.13
2023-01-19T00:06:24.105Z,9.77
2023-01-19T00:08:52.219Z,9.47
2023-01-19T00:11:20.598Z,8.20
2023-01-19T00:13:50.838Z,7.95
2023-01-19T00:16:21.724Z,4.67
2023-01-19T00:18:52.109Z,7.37
2023-01-19T00:21:21.475Z,6.73
2023-01-19T00:23:51.190Z,9.73
2023-01-19T00:26:21.081Z,9.18
2023-01-19T00:28:50.995Z,7.20
2023-01-19T00:31:21.624Z,5.77
2023-01-19T00:33:51.508Z,7.13
2023-01-19T00:36:20.187Z,6.50
2023-01-19T00:38:48.120Z,8.73
2023-01-19T00:41:16.111Z,8.77
2023-01-19T00:43:44.312Z,7.73
2023-01-19T00:46:16.491Z,7.03
2023-01-19T00:48:45.017Z,5.83
2023-01-19T00:51:13.531Z,8.33
2023-01-19T00:53:42.419Z,8.77
2023-01-19T00:56:10.383Z,9.70
2023-01-19T00:58:38.293Z,6.27
2023-01-19T01:01:07.004Z,7.37
2023-01-19T01:03:36.314Z,8.13
2023-01-19T01:06:06.985Z,8.63
2023-01-19T01:08:35.455Z,6.17
2023-01-19T01:11:03.313Z,6.73
2023-01-19T01:13:31.465Z,5.67
2023-01-19T01:15:59.467Z,6.40
2023-01-19T01:18:27.499Z,5.78
2023-01-19T01:21:03.548Z,5.90
2023-01-19T01:23:31.471Z,6.23
2023-01-19T01:25:59.429Z,3.30
2023-01-19T01:28:27.714Z,5.17
2023-01-19T01:30:55.667Z,7.77
2023-01-19T01:33:40.638Z,4.67
2023-01-19T01:36:11.612Z,6.10
2023-01-19T01:38:40.092Z,7.53
2023-01-19T01:41:08.802Z,4.40
2023-01-19T01:43:47.549Z,4.40
2023-01-19T01:46:17.206Z,3.23
2023-01-19T01:48:50.752Z,4.20
2023-01-19T01:51:25.060Z,3.83
2023-01-19T01:54:01.531Z,8.50
2023-01-19T01:56:36.039Z,4.23
2023-01-19T01:59:07.686Z,5.03
2023-01-19T02:01:53.470Z,3.43
2023-01-19T02:04:21.844Z,6.43
2023-01-19T02:07:09.300Z,5.27
2023-01-19T02:09:56.374Z,4.27
2023-01-19T02:12:42.223Z,4.97
2023-01-19T02:15:17.407Z,3.53
2023-01-19T02:17:45.669Z,3.70
2023-01-19T02:20:14.674Z,5.40
2023-01-19T02:22:50.040Z,5.73
2023-01-19T02:25:20.518Z,2.77
2023-01-19T02:27:50.108Z,5.23
2023-01-19T02:30:19.417Z,2.27
2023-01-19T02:32:47.480Z,3.67
2023-01-19T02:35:15.774Z,3.00
2023-01-19T02:37:45.625Z,2.63
2023-01-19T02:40:15.888Z,2.17
2023-01-19T02:42:49.415Z,2.87
2023-01-19T02:45:20.877Z,4.23
2023-01-19T02:47:50.792Z,4.60
2023-01-19T02:50:49.396Z,5.47
2023-01-19T02:53:32.076Z,5.33
2023-01-19T02:56:16.765Z,4.30
2023-01-19T02:58:51.145Z,3.07
2023-01-19T03:01:29.144Z,2.40
2023-01-19T03:04:00.452Z,6.63
2023-01-19T03:06:42.592Z,4.27
2023-01-19T03:09:16.486Z,2.50
2023-01-19T03:11:51.384Z,2.47
2023-01-19T03:14:25.986Z,3.92
2023-01-19T03:16:58.438Z,6.13
2023-01-19T03:19:29.641Z,5.10
2023-01-19T03:22:00.723Z,3.10
2023-01-19T03:24:36.888Z,6.73
2023-01-19T03:27:11.370Z,2.57
2023-01-19T03:29:43.784Z,2.87
2023-01-19T03:32:16.408Z,3.87
2023-01-19T03:34:45.834Z,2.10
2023-01-19T03:37:16.098Z,3.77
2023-01-19T03:39:44.352Z,3.03
2023-01-19T03:42:15.560Z,4.20
2023-01-19T03:44:46.526Z,3.37
2023-01-19T03:47:16.108Z,3.23
2023-01-19T03:49:46.680Z,3.07
2023-01-19T03:52:14.574Z,4.37
2023-01-19T03:54:42.439Z,3.50
2023-01-19T03:57:10.998Z,3.90
2023-01-19T03:59:38.854Z,4.37
2023-01-19T04:02:08.086Z,3.87
2023-01-19T04:04:35.932Z,3.70
2023-01-19T04:07:03.830Z,4.43
2023-01-19T04:09:33.811Z,4.10
2023-01-19T04:12:03.724Z,5.10
2023-01-19T04:14:31.813Z,3.03
2023-01-19T04:16:59.704Z,2.97
2023-01-19T04:19:28.985Z,3.87
2023-01-19T04:21:56.924Z,3.90
2023-01-19T04:24:24.769Z,4.50
2023-01-19T04:26:53.638Z,4.43
2023-01-19T04:29:21.518Z,4.27
2023-01-19T04:31:49.412Z,3.53
2023-01-19T04:34:17.542Z,7.33
2023-01-19T04:36:46.937Z,4.43
2023-01-19T04:39:15.024Z,5.13
2023-01-19T04:41:43.456Z,3.73
2023-01-19T04:44:11.498Z,4.87
2023-01-19T04:46:39.406Z,4.93
2023-01-19T04:49:07.352Z,3.97
2023-01-19T04:51:35.566Z,4.53
2023-01-19T04:54:05.074Z,3.20
2023-01-19T04:56:33.008Z,9.20
2023-01-19T04:59:00.876Z,3.47
2023-01-19T05:01:29.219Z,3.67
2023-01-19T05:03:59.974Z,5.50
2023-01-19T05:06:28.073Z,3.43
2023-01-19T05:08:56.002Z,2.63
2023-01-19T05:11:25.638Z,2.20
2023-01-19T05:13:53.639Z,3.00
2023-01-19T05:16:21.789Z,4.37
2023-01-19T05:18:50.004Z,3.90
2023-01-19T05:21:17.936Z,6.33
2023-01-19T05:23:45.895Z,6.70
2023-01-19T05:26:14.189Z,4.17
2023-01-19T05:28:43.528Z,4.23
2023-01-19T05:31:11.604Z,2.97
2023-01-19T05:33:39.541Z,5.13
2023-01-19T05:36:07.835Z,8.10
2023-01-19T05:38:36.227Z,7.27
2023-01-19T05:41:04.245Z,3.60
2023-01-19T05:43:32.229Z,5.70
2023-01-19T05:46:01.730Z,6.60
2023-01-19T05:48:29.632Z,3.43
2023-01-19T05:51:01.391Z,4.47
2023-01-19T05:53:29.887Z,7.67
2023-01-19T05:56:01.368Z,5.17
2023-01-19T05:58:29.786Z,6.90
2023-01-19T06:00:57.864Z,10.77
2023-01-19T06:03:27.132Z,8.60
2023-01-19T06:05:57.827Z,10.07
2023-01-19T06:08:26.040Z,12.33
2023-01-19T06:10:54.335Z,7.50
2023-01-19T06:13:22.540Z,9.17
2023-01-19T06:15:56.764Z,11.73
2023-01-19T06:18:24.574Z,10.87
2023-01-19T06:20:58.519Z,6.37
2023-01-19T06:23:26.571Z,6.67
2023-01-19T06:25:54.505Z,8.57
2023-01-19T06:28:22.371Z,10.97
2023-01-19T06:30:50.811Z,11.17
2023-01-19T06:33:20.222Z,9.57
2023-01-19T06:35:49.878Z,11.07
2023-01-19T06:38:20.210Z,12.20
2023-01-19T06:40:54.344Z,11.00
2023-01-19T06:43:22.639Z,11.17
2023-01-19T06:45:50.903Z,10.20
2023-01-19T06:48:19.502Z,13.03
2023-01-19T06:50:48.351Z,9.40
2023-01-19T06:53:17.527Z,9.97
2023-01-19T06:55:46.927Z,8.80
2023-01-19T06:58:15.160Z,8.17
2023-01-19T07:00:43.269Z,9.70
2023-01-19T07:03:20.471Z,6.37
2023-01-19T07:05:51.603Z,10.27
2023-01-19T07:08:19.658Z,8.27
2023-01-19T07:11:22.362Z,6.47
2023-01-19T07:13:38.651Z,8.07
2023-01-19T07:16:08.299Z,10.30
2023-01-19T07:18:36.849Z,8.10
2023-01-19T07:21:05.464Z,10.93
2023-01-19T07:23:33.996Z,10.50
2023-01-19T07:26:03.511Z,8.93
2023-01-19T07:28:32.811Z,7.87
2023-01-19T07:31:00.859Z,10.83
2023-01-19T07:33:29.059Z,12.23
2023-01-19T07:35:56.942Z,9.77
2023-01-19T07:38:25.320Z,9.60
2023-01-19T07:40:53.242Z,12.27
2023-01-19T07:43:22.540Z,9.20
2023-01-19T07:45:50.455Z,9.83
2023-01-19T07:48:18.440Z,11.87
2023-01-19T07:50:46.283Z,9.10
2023-01-19T07:53:14.290Z,7.73
2023-01-19T07:55:42.155Z,10.90
2023-01-19T07:58:10.189Z,10.97
2023-01-19T08:00:40.012Z,10.57
2023-01-19T08:03:09.128Z,14.07
2023-01-19T08:05:37.222Z,13.00
2023-01-19T08:08:05.701Z,14.60
2023-01-19T08:10:34.719Z,11.20
2023-01-19T08:13:03.064Z,15.90
2023-01-19T08:15:32.251Z,14.13
2023-01-19T08:18:05.509Z,14.27
2023-01-19T08:20:33.571Z,12.83
2023-01-19T08:23:02.935Z,16.37
2023-01-19T08:25:34.825Z,15.80
2023-01-19T08:28:03.550Z,16.47
2023-01-19T08:30:31.439Z,14.13
2023-01-19T08:33:04.886Z,14.07
2023-01-19T08:35:34.347Z,14.90
2023-01-19T08:38:02.370Z,14.13
2023-01-19T08:40:30.633Z,15.37
2023-01-19T08:43:03.725Z,14.07
2023-01-19T08:45:31.925Z,13.93
2023-01-19T08:48:01.704Z,11.17
2023-01-19T08:50:30.929Z,14.70
2023-01-19T08:52:59.951Z,13.13
2023-01-19T08:55:28.841Z,11.73
2023-01-19T08:58:00.556Z,13.33
2023-01-19T09:00:31.427Z,14.17
2023-01-19T09:03:02.052Z,12.60
2023-01-19T09:05:31.813Z,10.17
2023-01-19T09:08:00.147Z,14.53
2023-01-19T09:10:29.622Z,10.37
2023-01-19T09:12:57.517Z,12.63
2023-01-19T09:15:25.396Z,18.20
2023-01-19T09:17:53.752Z,11.70
2023-01-19T09:20:23.575Z,15.63
2023-01-19T09:22:51.490Z,12.53
2023-01-19T09:25:19.806Z,14.00
2023-01-19T09:27:47.789Z,11.77
2023-01-19T09:30:17.186Z,12.33
2023-01-19T09:32:45.592Z,15.83
2023-01-19T09:35:13.864Z,14.93
2023-01-19T09:37:47.207Z,16.10
2023-01-19T09:40:17.382Z,16.47
2023-01-19T09:42:49.908Z,16.80
2023-01-19T09:45:27.323Z,16.00
2023-01-19T09:47:56.572Z,14.83
2023-01-19T09:50:29.592Z,18.20
2023-01-19T09:53:05.225Z,17.30
2023-01-19T09:55:33.200Z,20.10
2023-01-19T09:58:01.467Z,20.10
2023-01-19T10:00:31.283Z,18.97
2023-01-19T10:03:07.588Z,18.80
2023-01-19T10:05:44.815Z,19.07
2023-01-19T10:08:22.035Z,18.53
2023-01-19T10:10:54.069Z,17.80
2023-01-19T10:13:39.401Z,19.53
2023-01-19T10:16:31.510Z,16.60
2023-01-19T10:19:09.837Z,18.27
2023-01-19T10:21:42.896Z,21.47
2023-01-19T10:24:19.565Z,17.43
2023-01-19T10:26:52.373Z,17.23
2023-01-19T10:29:26.696Z,21.53
2023-01-19T10:32:03.307Z,16.97
2023-01-19T10:34:31.271Z,18.53
2023-01-19T10:37:05.877Z,20.73
2023-01-19T10:39:38.645Z,24.30
2023-01-19T10:42:11.669Z,24.33
2023-01-19T10:44:39.800Z,20.83
2023-01-19T10:47:15.758Z,24.47
2023-01-19T10:49:44.623Z,23.43
2023-01-19T10:52:25.217Z,21.37
2023-01-19T10:54:55.037Z,28.53
2023-01-19T10:57:29.020Z,23.17
2023-01-19T10:59:57.305Z,20.50
2023-01-19T11:02:27.837Z,17.33
2023-01-19T11:04:58.685Z,25.00
2023-01-19T11:07:30.291Z,24.77
2023-01-19T11:10:25.078Z,21.50
2023-01-19T11:13:03.643Z,20.53
2023-01-19T11:15:42.987Z,23.27
2023-01-19T11:18:27.609Z,23.77
2023-01-19T11:20:57.708Z,21.30
2023-01-19T11:23:29.142Z,26.27
2023-01-19T11:26:01.503Z,21.50
2023-01-19T11:28:32.859Z,22.43
2023-01-19T11:31:02.536Z,21.73
2023-01-19T11:33:35.912Z,22.40
2023-01-19T11:36:07.179Z,23.77
2023-01-19T11:38:43.517Z,25.13
2023-01-19T11:41:19.147Z,25.00
2023-01-19T11:43:49.431Z,19.53
2023-01-19T11:46:18.677Z,25.00
2023-01-19T11:48:50.985Z,22.20
2023-01-19T11:51:22.107Z,18.73
2023-01-19T11:53:53.395Z,26.43
2023-01-19T11:56:28.172Z,20.57
2023-01-19T11:58:57.207Z,18.60
2023-01-19T12:01:30.882Z,22.50
2023-01-19T12:04:05.219Z,25.47
2023-01-19T12:06:36.540Z,27.33
2023-01-19T12:09:12.710Z,20.03
2023-01-19T12:11:45.180Z,21.47
2023-01-19T12:14:19.698Z,19.43
2023-01-19T12:16:48.615Z,22.40
2023-01-19T12:19:21.862Z,21.40
2023-01-19T12:21:52.449Z,13.97
2023-01-19T12:24:28.521Z,16.20
2023-01-19T12:27:00.564Z,14.87
2023-01-19T12:29:33.091Z,17.70
2023-01-19T12:32:33.750Z,17.00
2023-01-19T12:35:01.926Z,16.37
2023-01-19T12:37:35.854Z,15.57
2023-01-19T12:40:22.872Z,19.60
2023-01-19T12:43:01.140Z,17.33
2023-01-19T12:45:34.544Z,18.67
2023-01-19T12:48:03.582Z,14.33
2023-01-19T12:50:36.076Z,10.83
2023-01-19T12:53:07.844Z,16.77
2023-01-19T12:55:37.976Z,18.13
2023-01-19T12:58:13.815Z,19.53
2023-01-19T13:00:44.948Z,15.97
2023-01-19T13:03:45.618Z,16.60
2023-01-19T13:06:13.720Z,17.10
2023-01-19T13:08:59.485Z,19.77
2023-01-19T13:11:32.553Z,14.90
2023-01-19T13:14:37.404Z,17.07
2023-01-19T13:17:27.825Z,21.10
2023-01-19T13:20:04.455Z,16.40
2023-01-19T13:23:20.230Z,20.87
2023-01-19T13:25:54.494Z,18.97
2023-01-19T13:28:31.447Z,18.13
2023-01-19T13:31:02.655Z,16.30
2023-01-19T13:33:41.206Z,17.00
2023-01-19T13:36:22.552Z,13.93
2023-01-19T13:38:52.179Z,16.13
2023-01-19T13:41:24.558Z,19.03
2023-01-19T13:43:59.907Z,15.33
2023-01-19T13:46:29.954Z,17.13
2023-01-19T13:49:01.601Z,18.20
2023-01-19T13:51:29.511Z,19.20
2023-01-19T13:53:58.743Z,18.20
2023-01-19T13:56:30.536Z,17.30
2023-01-19T13:59:05.108Z,18.40
2023-01-19T14:01:37.596Z,17.23
2023-01-19T14:04:06.094Z,13.27
2023-01-19T14:06:45.761Z,16.97
2023-01-19T14:09:17.864Z,16.73
2023-01-19T14:11:47.162Z,22.13
2023-01-19T14:14:26.031Z,25.73
2023-01-19T14:16:55.607Z,18.40
2023-01-19T14:19:23.888Z,14.60
2023-01-19T14:22:07.459Z,11.13
2023-01-19T14:24:35.374Z,10.23
2023-01-19T14:27:19.257Z,13.57
2023-01-19T14:29:50.429Z,15.53
2023-01-19T14:32:21.537Z,12.37
2023-01-19T14:34:51.418Z,13.63
2023-01-19T14:37:22.607Z,12.10
2023-01-19T14:39:52.286Z,15.73
2023-01-19T14:42:27.718Z,12.37
2023-01-19T14:44:57.943Z,13.03
2023-01-19T14:47:35.081Z,12.13
2023-01-19T14:50:08.598Z,23.33
2023-01-19T14:52:39.777Z,15.20
2023-01-19T14:55:17.584Z,18.60
2023-01-19T14:57:45.484Z,15.63
2023-01-19T15:00:18.867Z,13.33
2023-01-19T15:02:48.348Z,10.37
2023-01-19T15:05:16.641Z,12.17
2023-01-19T15:07:46.382Z,11.70
2023-01-19T15:10:18.985Z,14.77
2023-01-19T15:12:47.451Z,9.93
2023-01-19T15:15:18.208Z,11.13
2023-01-19T15:17:46.365Z,12.03
2023-01-19T15:20:18.949Z,14.17
2023-01-19T15:22:47.419Z,14.03
2023-01-19T15:25:16.181Z,9.83
2023-01-19T15:27:44.944Z,10.83
2023-01-19T15:30:22.781Z,11.50
2023-01-19T15:32:51.162Z,10.27
2023-01-19T15:35:22.739Z,11.40
2023-01-19T15:37:51.649Z,11.17
2023-01-19T15:40:22.668Z,9.87
2023-01-19T15:42:51.118Z,11.37
2023-01-19T15:45:32.328Z,12.03
2023-01-19T15:48:00.326Z,7.87
2023-01-19T15:50:29.945Z,9.37
2023-01-19T15:52:57.848Z,8.03
2023-01-19T15:55:26.055Z,8.70
2023-01-19T15:57:55.057Z,10.90
2023-01-19T16:00:23.198Z,9.63
2023-01-19T16:02:52.051Z,9.83
2023-01-19T16:05:21.529Z,7.63
2023-01-19T16:07:50.994Z,8.20
2023-01-19T16:10:19.522Z,12.10
2023-01-19T16:12:47.863Z,10.47
2023-01-19T16:15:16.477Z,9.23
2023-01-19T16:17:44.839Z,8.10
2023-01-19T16:20:14.847Z,8.73
2023-01-19T16:22:42.931Z,8.57
2023-01-19T16:25:12.983Z,8.20
2023-01-19T16:27:41.003Z,15.77
2023-01-19T16:30:12.417Z,10.30
2023-01-19T16:32:40.782Z,9.13
2023-01-19T16:35:09.203Z,9.97
2023-01-19T16:37:37.484Z,7.73
2023-01-19T16:40:06.081Z,10.80
2023-01-19T16:42:35.301Z,9.67
2023-01-19T16:45:03.344Z,14.17
2023-01-19T16:47:31.279Z,6.97
2023-01-19T16:49:59.121Z,9.10
2023-01-19T16:52:27.014Z,8.63
2023-01-19T16:54:55.007Z,12.43
2023-01-19T16:57:22.965Z,7.03
2023-01-19T16:59:52.184Z,10.60
2023-01-19T17:02:20.414Z,10.70
2023-01-19T17:04:48.423Z,9.67
2023-01-19T17:07:18.888Z,10.53
2023-01-19T17:09:47.119Z,11.97
2023-01-19T17:12:15.101Z,7.83
2023-01-19T17:14:43.149Z,8.67
2023-01-19T17:17:12.453Z,11.03
2023-01-19T17:19:40.808Z,11.33
2023-01-19T17:22:08.736Z,9.43
2023-01-19T17:24:36.593Z,9.07
2023-01-19T17:27:04.553Z,12.70
2023-01-19T17:29:32.381Z,8.67
2023-01-19T17:32:00.269Z,7.50
2023-01-19T17:34:29.668Z,7.67
2023-01-19T17:37:02.690Z,8.93
2023-01-19T17:39:30.971Z,5.33
2023-01-19T17:41:59.074Z,6.93
2023-01-19T17:44:27.167Z,7.30
2023-01-19T17:46:56.346Z,7.40
2023-01-19T17:49:24.632Z,11.40
2023-01-19T17:51:55.684Z,10.10
2023-01-19T17:54:23.731Z,6.77
2023-01-19T17:56:51.634Z,6.30
2023-01-19T17:59:19.765Z,7.27
2023-01-19T18:01:47.768Z,8.77
2023-01-19T18:04:15.694Z,7.83
2023-01-19T18:06:43.581Z,8.20
2023-01-19T18:09:13.065Z,10.43
2023-01-19T18:11:42.702Z,7.37
2023-01-19T18:14:10.676Z,12.40
2023-01-19T18:16:38.589Z,11.17
2023-01-19T18:19:06.544Z,10.77
2023-01-19T18:21:34.471Z,10.70
2023-01-19T18:24:03.877Z,11.57
2023-01-19T18:26:34.289Z,12.23
2023-01-19T18:29:02.297Z,15.13
2023-01-19T18:31:30.532Z,14.57
2023-01-19T18:33:58.501Z,11.00
2023-01-19T18:36:26.548Z,14.80
2023-01-19T18:38:54.531Z,14.17
2023-01-19T18:41:23.292Z,13.57
2023-01-19T18:43:54.481Z,11.83
2023-01-19T18:46:22.568Z,10.97
2023-01-19T18:48:50.564Z,10.07
2023-01-19T18:51:18.756Z,11.13
2023-01-19T18:53:46.966Z,10.50
2023-01-19T18:56:17.605Z,9.27
2023-01-19T18:58:46.089Z,10.03
2023-01-19T19:01:24.065Z,11.50
2023-01-19T19:03:52.502Z,6.67
2023-01-19T19:06:20.957Z,7.73
2023-01-19T19:08:50.333Z,6.97
2023-01-19T19:11:18.522Z,9.40
2023-01-19T19:13:46.603Z,10.60
2023-01-19T19:16:14.746Z,8.57
2023-01-19T19:18:44.328Z,8.23
2023-01-19T19:21:14.256Z,6.17
2023-01-19T19:23:42.107Z,7.07
2023-01-19T19:26:12.168Z,9.17
2023-01-19T19:28:41.472Z,7.83
2023-01-19T19:31:11.538Z,8.90
2023-01-19T19:33:40.626Z,9.03
2023-01-19T19:36:12.579Z,7.67
2023-01-19T19:38:42.844Z,15.80
2023-01-19T19:41:13.379Z,10.10
2023-01-19T19:43:43.326Z,6.67
2023-01-19T19:46:13.631Z,7.77
2023-01-19T19:48:42.050Z,8.87
2023-01-19T19:51:18.348Z,4.93
2023-01-19T19:53:50.207Z,6.13
2023-01-19T19:56:21.047Z,10.77
2023-01-19T19:58:49.663Z,10.47
2023-01-19T20:01:19.689Z,7.43
2023-01-19T20:03:47.992Z,5.37
2023-01-19T20:06:20.700Z,11.67
2023-01-19T20:08:49.084Z,7.30
2023-01-19T20:11:18.954Z,7.00
2023-01-19T20:13:47.675Z,7.23
2023-01-19T20:16:17.004Z,8.73
2023-01-19T20:18:48.473Z,8.53
2023-01-19T20:21:19.968Z,6.20
2023-01-19T20:23:50.412Z,6.73
2023-01-19T20:26:20.935Z,10.97
2023-01-19T20:28:51.763Z,6.23
2023-01-19T20:31:21.961Z,7.77
2023-01-19T20:33:51.554Z,7.07
2023-01-19T20:36:21.974Z,7.17
2023-01-19T20:38:49.870Z,7.00
2023-01-19T20:41:18.327Z,8.93
2023-01-19T20:43:46.288Z,11.00
2023-01-19T20:46:14.197Z,7.50
2023-01-19T20:48:42.171Z,7.10
2023-01-19T20:51:12.326Z,8.30
2023-01-19T20:53:42.794Z,10.20
2023-01-19T20:56:13.701Z,6.20
2023-01-19T20:58:42.309Z,8.57
2023-01-19T21:01:11.955Z,8.30
2023-01-19T21:03:40.046Z,7.13
2023-01-19T21:06:08.403Z,8.47
2023-01-19T21:08:36.437Z,7.40
2023-01-19T21:11:07.834Z,9.53
2023-01-19T21:13:36.531Z,5.23
2023-01-19T21:16:04.889Z,7.63
2023-01-19T21:18:33.258Z,7.97
2023-01-19T21:21:01.266Z,7.20
2023-01-19T21:23:29.560Z,6.37
2023-01-19T21:25:59.223Z,8.53
2023-01-19T21:28:29.514Z,9.07
2023-01-19T21:30:57.519Z,9.13
2023-01-19T21:33:25.626Z,9.60
2023-01-19T21:35:55.072Z,15.53
2023-01-19T21:38:24.814Z,10.60
2023-01-19T21:40:52.740Z,11.33
2023-01-19T21:43:20.902Z,9.83
2023-01-19T21:45:50.678Z,9.90
2023-01-19T21:48:22.223Z,9.83
2023-01-19T21:50:58.043Z,10.53
2023-01-19T21:53:25.956Z,10.40
2023-01-19T21:55:53.848Z,14.17
2023-01-19T21:58:23.684Z,8.17
2023-01-19T22:01:00.468Z,8.07
2023-01-19T22:03:28.886Z,12.10
2023-01-19T22:05:57.055Z,6.37
2023-01-19T22:08:25.242Z,10.63
2023-01-19T22:10:53.169Z,8.60
2023-01-19T22:13:21.051Z,10.60
2023-01-19T22:15:48.938Z,6.90
2023-01-19T22:18:18.245Z,11.40
2023-01-19T22:20:46.101Z,10.97
2023-01-19T22:23:14.056Z,8.97
2023-01-19T22:25:41.998Z,7.03
2023-01-19T22:28:09.882Z,8.10
2023-01-19T22:30:37.902Z,7.10
2023-01-19T22:33:05.859Z,7.37
2023-01-19T22:35:35.157Z,11.63
2023-01-19T22:38:03.114Z,9.73
2023-01-19T22:40:30.959Z,14.43
2023-01-19T22:42:58.821Z,9.37
2023-01-19T22:45:26.771Z,8.57
2023-01-19T22:47:54.647Z,10.90
2023-01-19T22:50:22.463Z,10.83
2023-01-19T22:52:56.388Z,10.90
2023-01-19T22:55:24.377Z,11.47
2023-01-19T22:57:52.276Z,12.13
2023-01-19T23:00:21.534Z,11.97
2023-01-19T23:02:49.477Z,14.10
2023-01-19T23:05:17.584Z,8.90
2023-01-19T23:07:45.592Z,13.50
2023-01-19T23:10:14.915Z,12.00
2023-01-19T23:12:42.819Z,9.50
2023-01-19T23:15:11.481Z,9.37
2023-01-19T23:17:39.521Z,8.67
2023-01-19T23:20:08.850Z,10.67
2023-01-19T23:22:36.846Z,10.53
2023-01-19T23:25:04.999Z,7.77
2023-01-19T23:27:34.245Z,7.53
2023-01-19T23:30:02.139Z,11.77
2023-01-19T23:32:30.122Z,10.90
2023-01-19T23:34:58.017Z,9.63
2023-01-19T23:37:25.865Z,13.73
2023-01-19T23:39:53.729Z,9.67
2023-01-19T23:42:21.642Z,9.70
2023-01-19T23:44:50.846Z,10.63
2023-01-19T23:47:18.752Z,10.63
2023-01-19T23:49:46.615Z,10.90
2023-01-19T23:52:14.419Z,7.57
2023-01-19T23:54:42.518Z,10.43
2023-01-19T23:57:10.336Z,9.43
2023-01-19T23:59:38.420Z,9.70
